Irene V — J8PS4 — position and weather

sailwx.info

Track history (hours):
 
Tides and Currents Weather Stations Pressure Air Temp Water Temp Dewpoint Dewpoint Depression Visibility Wind Speed Wind Dir Waves Ship Positions

Irene V

Last reported at 2017-Jul-01 22:24 UTC. Time now 2017-Nov-25 00:22 UTC.
Position N 17°47' W 063°04'.
Warning: this ship's position is months out of date.

Length 72 m; draft 5.7 m.

Type: Cargo ship. MMSI: 377924000.

Date/timePositionNaut miles runAvg speedWind from/ knotsBaromVisibWave heightAir tempDewpointWater temp
2017-Jul-01 22:24N 17°47' W 063°04'2 5.8
2017-Jul-01 22:00N 17°49' W 063°04'3 5.5
2017-Jul-01 21:30N 17°52' W 063°04'3 5.9
2017-Jul-01 21:00N 17°55' W 063°04'3 5.7
2017-Jul-01 20:30N 17°57' W 063°04'3 5.6
2017-Jul-01 19:59N 18°00' W 063°04'1 1.5
2017-Jul-01 19:27N 18°00' W 063°03'0 0.0
2017-Jul-01 17:33N 18°00' W 063°03'0 0.0
2017-Jul-01 17:29N 18°00' W 063°03'0 0.0
2017-Jul-01 16:55N 18°00' W 063°03'0 0.0
2017-Jul-01 16:30N 18°00' W 063°03'0 0.0
2017-Jul-01 15:59N 18°00' W 063°03'0 0.0
2017-Jul-01 11:28N 18°00' W 063°03'0 0.0
2017-Jul-01 10:23N 18°00' W 063°03'0 0.0
2017-Jul-01 08:54N 18°00' W 063°03'0 0.0
2017-Jul-01 08:14N 18°00' W 063°03'0 0.0
2017-Jul-01 07:14N 18°00' W 063°03'0 0.0
2017-Jul-01 06:50N 18°00' W 063°03'0 0.0
2017-Jul-01 05:02N 18°00' W 063°03'0 0.0
2017-Jul-01 04:35N 18°00' W 063°03'0 0.0
2017-Jul-01 00:53N 18°00' W 063°03'0 0.0
2017-Jun-30 19:19N 18°00' W 063°03'0 0.0
2017-Jun-30 18:59N 18°00' W 063°03'0 0.0
2017-Jun-30 18:26N 18°00' W 063°03'0 0.0
2017-Jun-30 13:10N 18°00' W 063°03'0 0.1
2017-Jun-30 11:10N 18°00' W 063°03'1 3.1
2017-Jun-30 11:00N 18°00' W 063°03'3 6.1
2017-Jun-30 10:28N 17°59' W 063°06'4 6.8
2017-Jun-30 09:56N 17°56' W 063°08'3 6.6
2017-Jun-30 09:29N 17°53' W 063°08'3 7.0
2017-Jun-30 09:00N 17°49' W 063°07'4 7.2
2017-Jun-30 08:28N 17°46' W 063°06'  
2017-Jun-23 02:38N 17°41' W 063°06'2 9.3
2017-Jun-23 02:27N 17°43' W 063°06'4 9.2
2017-Jun-23 01:59N 17°47' W 063°05'5 9.4
2017-Jun-23 01:29N 17°52' W 063°04'5 9.7
2017-Jun-23 01:00N 17°57' W 063°04'4 7.1
2017-Jun-23 00:30N 17°60' W 063°05'2 3.4
2017-Jun-23 00:00N 17°58' W 063°04'2 0.1
2017-Jun-22 05:52N 18°00' W 063°03'  
Track history (hours):
 
Tides and Currents Weather Stations Pressure Air Temp Water Temp Dewpoint Dewpoint Depression Visibility Wind Speed Wind Dir Waves Ship Positions

Irene V

Last reported at 2017-Jul-01 22:24 UTC. Time now 2017-Nov-25 00:22 UTC.
Position N 17°47' W 063°04'.
Warning: this ship's position is months out of date.

Length 72 m; draft 5.7 m.

Type: Cargo ship. MMSI: 377924000.

Date/timePositionNaut miles runAvg speedWind from/ knotsBaromVisibWave heightAir tempDewpointWater temp
2017-Jul-01 22:24N 17°47' W 063°04'2 5.8
2017-Jul-01 22:00N 17°49' W 063°04'3 5.5
2017-Jul-01 21:30N 17°52' W 063°04'3 5.9
2017-Jul-01 21:00N 17°55' W 063°04'3 5.7
2017-Jul-01 20:30N 17°57' W 063°04'3 5.6
2017-Jul-01 19:59N 18°00' W 063°04'1 1.5
2017-Jul-01 19:27N 18°00' W 063°03'0 0.0
2017-Jul-01 17:33N 18°00' W 063°03'0 0.0
2017-Jul-01 17:29N 18°00' W 063°03'0 0.0
2017-Jul-01 16:55N 18°00' W 063°03'0 0.0
2017-Jul-01 16:30N 18°00' W 063°03'0 0.0
2017-Jul-01 15:59N 18°00' W 063°03'0 0.0
2017-Jul-01 11:28N 18°00' W 063°03'0 0.0
2017-Jul-01 10:23N 18°00' W 063°03'0 0.0
2017-Jul-01 08:54N 18°00' W 063°03'0 0.0
2017-Jul-01 08:14N 18°00' W 063°03'0 0.0
2017-Jul-01 07:14N 18°00' W 063°03'0 0.0
2017-Jul-01 06:50N 18°00' W 063°03'0 0.0
2017-Jul-01 05:02N 18°00' W 063°03'0 0.0
2017-Jul-01 04:35N 18°00' W 063°03'0 0.0
2017-Jul-01 00:53N 18°00' W 063°03'0 0.0
2017-Jun-30 19:19N 18°00' W 063°03'0 0.0
2017-Jun-30 18:59N 18°00' W 063°03'0 0.0
2017-Jun-30 18:26N 18°00' W 063°03'0 0.0
2017-Jun-30 13:10N 18°00' W 063°03'0 0.1
2017-Jun-30 11:10N 18°00' W 063°03'1 3.1
2017-Jun-30 11:00N 18°00' W 063°03'3 6.1
2017-Jun-30 10:28N 17°59' W 063°06'4 6.8
2017-Jun-30 09:56N 17°56' W 063°08'3 6.6
2017-Jun-30 09:29N 17°53' W 063°08'3 7.0
2017-Jun-30 09:00N 17°49' W 063°07'4 7.2
2017-Jun-30 08:28N 17°46' W 063°06'  
2017-Jun-23 02:38N 17°41' W 063°06'2 9.3
2017-Jun-23 02:27N 17°43' W 063°06'4 9.2
2017-Jun-23 01:59N 17°47' W 063°05'5 9.4
2017-Jun-23 01:29N 17°52' W 063°04'5 9.7
2017-Jun-23 01:00N 17°57' W 063°04'4 7.1
2017-Jun-23 00:30N 17°60' W 063°05'2 3.4
2017-Jun-23 00:00N 17°58' W 063°04'2 0.1
2017-Jun-22 05:52N 18°00' W 063°03'  

Dump ship's entire track history